Stillwater, Canada
Current Conditions -  °F | °C
As of 7:00 PM on Tuesday 21 Oct 2014 (Local Time) from CYPW Reporting Station
Heavy Rain Heavy Rain  
Wind Chill: 54°   Ceiling: 800
Heat Index: 54°   Visibility: 3mi
Dew Point: 52°   Wind: 17mph
Humidity: 94%   Direction: 120°ESE
Pressure: 29.67"   Gusts: 24mph
Location:  49.77°N, 124.3°W
Report Text: CYPW 220200Z 12015G21KT 090V230 3SM +RA BR FEW002 BKN008 OVC020 12/11 A2967 RMK SF1SF6SC2 SF TR LAST OBS/NEXT221300UTC PRESFRSLP049
Loading
Personal Weather Stations






























Interactive Weather Map
Tropical Storm Tracking
New forecast layout! Learn more

10-Day Weather Forecast

Advertisements
Track Severe Weather on mobile